Time;durP1;ratioP1;P1;durP2;ratioP2;P2;SDS_P1;SDS_P2;PMS_P1;PMS_P2;Temp;Humidity;BMP_temperature;BMP_pressure;BME280_temperature;BME280_humidity;BME280_pressure;Samples;Min_cycle;Max_cycle;Signal;HPM_P1;HPM_P2
2022/10/09 00:00:43;;;;;;;;;;;;;;;;;;5032871;28;825;-66
2022/10/09 00:03:09;;;;;;;;;;;;;;;;;;5033255;28;830;-66
2022/10/09 00:05:34;;;;;;;;;;;;;;;;;;5015228;28;1323;-66
2022/10/09 00:07:59;;;;;;;;;;;;;;;;;;5031580;28;1122;-66
2022/10/09 00:10:25;;;;;;;;;;;;;;;;;;5032946;28;817;-66
2022/10/09 00:12:50;;;;;;;;;;;;;;;;;;5015025;28;1319;-66
2022/10/09 00:15:15;;;;;;;;;;;;;;;;;;5032881;28;911;-66
2022/10/09 00:17:41;;;;;;;;;;;;;;;;;;5032804;28;1391;-66
2022/10/09 00:20:06;;;;;;;;;;;;;;;;;;5031586;28;1910;-66
2022/10/09 00:22:33;;;;;;;;;;;;;;;;;;5033126;28;781;-66
2022/10/09 00:24:58;;;;;;;;;;;;;;;;;;5031009;28;833;-66
2022/10/09 00:27:24;;;;;;;;;;;;;;;;;;5031398;28;828;-66
2022/10/09 00:29:49;;;;;;;;;;;;;;;;;;5014455;28;1383;-66
2022/10/09 00:32:15;;;;;;;;;;;;;;;;;;5032450;28;805;-66
2022/10/09 00:34:40;;;;;;;;;;;;;;;;;;5032304;28;1142;-66
2022/10/09 00:37:05;;;;;;;;;;;;;;;;;;5032497;28;1003;-66
2022/10/09 00:39:31;;;;;;;;;;;;;;;;;;5031286;28;2013;-67
2022/10/09 00:41:56;;;;;;;;;;;;;;;;;;5030970;28;877;-66
2022/10/09 00:44:40;;;;;;;;;;;;;;;;;;5014165;28;1276;-67
2022/10/09 00:47:11;;;;;;;;;;;;;;;;;;5032237;28;932;-66
2022/10/09 00:49:36;;;;;;;;;;;;;;;;;;5031857;28;1090;-66
2022/10/09 00:52:06;;;;;;;;;;;;;;;;;;5032242;28;928;-67
2022/10/09 00:54:32;;;;;;;;;;;;;;;;;;5014556;28;1238;-66
2022/10/09 00:56:58;;;;;;;;;;;;;;;;;;5031795;28;916;-66
2022/10/09 00:59:24;;;;;;;;;;;;;;;;;;5013846;28;1898;-66
2022/10/09 01:01:49;;;;;;;;;;;;;;;;;;5031228;28;885;-66
2022/10/09 01:04:15;;;;;;;;;;;;;;;;;;5031763;28;759;-67
2022/10/09 01:06:43;;;;;;;;;;;;;;;;;;5032062;28;833;-66
2022/10/09 01:09:18;;;;;;;;;;;;;;;;;;5031847;28;931;-66
2022/10/09 01:11:59;;;;;;;;;;;;;;;;;;5031590;28;897;-66
2022/10/09 01:14:30;;;;;;;;;;;;;;;;;;5013605;28;1312;-66
2022/10/09 01:17:00;;;;;;;;;;;;;;;;;;5013323;28;1387;-66
2022/10/09 01:19:44;;;;;;;;;;;;;;;;;;5031550;28;1981;-66
2022/10/09 01:22:25;;;;;;;;;;;;;;;;;;5032001;28;771;-66
2022/10/09 01:24:54;;;;;;;;;;;;;;;;;;5032063;28;955;-66
2022/10/09 01:27:23;;;;;;;;;;;;;;;;;;5032451;28;892;-66
2022/10/09 01:29:52;;;;;;;;;;;;;;;;;;5031933;28;1074;-66
2022/10/09 01:32:19;;;;;;;;;;;;;;;;;;5032028;28;916;-66
2022/10/09 01:34:46;;;;;;;;;;;;;;;;;;5032193;28;915;-66
2022/10/09 01:37:12;;;;;;;;;;;;;;;;;;5032186;28;818;-67
2022/10/09 01:39:38;;;;;;;;;;;;;;;;;;5032806;28;1906;-66
2022/10/09 01:42:04;;;;;;;;;;;;;;;;;;5032255;28;865;-66
2022/10/09 01:44:30;;;;;;;;;;;;;;;;;;5032763;28;940;-66
2022/10/09 01:46:56;;;;;;;;;;;;;;;;;;5032743;28;904;-66
2022/10/09 01:49:27;;;;;;;;;;;;;;;;;;5030919;28;872;-66
2022/10/09 01:52:01;;;;;;;;;;;;;;;;;;5032224;28;1093;-66
2022/10/09 01:54:47;;;;;;;;;;;;;;;;;;5032567;28;888;-66
2022/10/09 01:57:16;;;;;;;;;;;;;;;;;;5033032;28;809;-66
2022/10/09 01:59:43;;;;;;;;;;;;;;;;;;5032878;28;1970;-66
2022/10/09 02:02:09;;;;;;;;;;;;;;;;;;5032712;28;841;-66
2022/10/09 02:04:37;;;;;;;;;;;;;;;;;;5014812;28;1317;-66
2022/10/09 02:07:04;;;;;;;;;;;;;;;;;;5032775;28;813;-66
2022/10/09 02:09:30;;;;;;;;;;;;;;;;;;5014542;28;1068;-66
2022/10/09 02:11:58;;;;;;;;;;;;;;;;;;5031232;28;778;-66
2022/10/09 02:14:23;;;;;;;;;;;;;;;;;;5032372;28;900;-66
2022/10/09 02:16:54;;;;;;;;;;;;;;;;;;5032263;28;1051;-66
2022/10/09 02:19:26;;;;;;;;;;;;;;;;;;5030755;28;1910;-66
2022/10/09 02:21:52;;;;;;;;;;;;;;;;;;5029525;28;1169;-66
2022/10/09 02:24:19;;;;;;;;;;;;;;;;;;5030463;28;903;-66
2022/10/09 02:26:44;;;;;;;;;;;;;;;;;;5030615;28;936;-66
2022/10/09 02:29:10;;;;;;;;;;;;;;;;;;5030858;28;825;-66
2022/10/09 02:31:36;;;;;;;;;;;;;;;;;;5030589;28;1042;-66
2022/10/09 02:34:22;;;;;;;;;;;;;;;;;;5030411;28;809;-66
2022/10/09 02:36:47;;;;;;;;;;;;;;;;;;5030049;28;1140;-66
2022/10/09 02:39:13;;;;;;;;;;;;;;;;;;5029555;28;1969;-66
2022/10/09 02:41:38;;;;;;;;;;;;;;;;;;5030494;28;869;-66
2022/10/09 02:44:04;;;;;;;;;;;;;;;;;;5030315;28;837;-66
2022/10/09 02:46:30;;;;;;;;;;;;;;;;;;5028961;28;822;-66
2022/10/09 02:48:55;;;;;;;;;;;;;;;;;;5012157;28;1201;-66
2022/10/09 02:51:21;;;;;;;;;;;;;;;;;;5012396;28;1277;-66
2022/10/09 02:53:46;;;;;;;;;;;;;;;;;;5029014;28;939;-66
2022/10/09 02:56:11;;;;;;;;;;;;;;;;;;5012800;28;1181;-66
2022/10/09 02:58:37;;;;;;;;;;;;;;;;;;5012367;28;1953;-66
2022/10/09 03:01:03;;;;;;;;;;;;;;;;;;5031369;28;959;-66
2022/10/09 03:03:29;;;;;;;;;;;;;;;;;;5030609;28;841;-66
2022/10/09 03:06:01;;;;;;;;;;;;;;;;;;5030551;28;868;-66
2022/10/09 03:08:26;;;;;;;;;;;;;;;;;;5012825;28;1114;-66
2022/10/09 03:10:51;;;;;;;;;;;;;;;;;;5030478;28;797;-66
2022/10/09 03:13:16;;;;;;;;;;;;;;;;;;5012564;28;1165;-65
2022/10/09 03:15:42;;;;;;;;;;;;;;;;;;5030518;28;1115;-66
2022/10/09 03:18:08;;;;;;;;;;;;;;;;;;5026232;28;1110;-66
2022/10/09 03:20:33;;;;;;;;;;;;;;;;;;5008669;28;1982;-66
2022/10/09 03:22:58;;;;;;;;;;;;;;;;;;5009987;28;896;-66
2022/10/09 03:25:24;;;;;;;;;;;;;;;;;;5013989;28;892;-66
2022/10/09 03:27:49;;;;;;;;;;;;;;;;;;5012596;28;1365;-66
2022/10/09 03:30:14;;;;;;;;;;;;;;;;;;5028802;28;817;-66
2022/10/09 03:32:39;;;;;;;;;;;;;;;;;;5012250;28;1336;-66
2022/10/09 03:35:05;;;;;;;;;;;;;;;;;;5012474;28;1341;-66
2022/10/09 03:37:31;;;;;;;;;;;;;;;;;;5012461;28;1373;-66
2022/10/09 03:39:57;;;;;;;;;;;;;;;;;;5013239;28;1985;-66
2022/10/09 03:42:22;;;;;;;;;;;;;;;;;;5028543;28;841;-66
2022/10/09 03:44:47;;;;;;;;;;;;;;;;;;5013026;28;778;-66
2022/10/09 03:47:13;;;;;;;;;;;;;;;;;;5012415;28;1318;-66
2022/10/09 03:49:38;;;;;;;;;;;;;;;;;;5011927;28;1362;-66
2022/10/09 03:52:03;;;;;;;;;;;;;;;;;;5028419;28;1007;-66
2022/10/09 03:54:28;;;;;;;;;;;;;;;;;;5028476;28;1047;-66
2022/10/09 03:56:54;;;;;;;;;;;;;;;;;;5013045;28;821;-66
2022/10/09 03:59:19;;;;;;;;;;;;;;;;;;5012049;28;1973;-66
2022/10/09 04:01:44;;;;;;;;;;;;;;;;;;5028167;28;908;-66
2022/10/09 04:04:09;;;;;;;;;;;;;;;;;;5013261;28;865;-66
2022/10/09 04:06:35;;;;;;;;;;;;;;;;;;5013239;28;915;-66
2022/10/09 04:09:00;;;;;;;;;;;;;;;;;;5012804;28;687;-66
2022/10/09 04:11:25;;;;;;;;;;;;;;;;;;5011035;28;1349;-66
2022/10/09 04:13:51;;;;;;;;;;;;;;;;;;5012094;28;1228;-66
2022/10/09 04:16:16;;;;;;;;;;;;;;;;;;5045251;28;1254;-66
2022/10/09 04:18:42;;;;;;;;;;;;;;;;;;5044418;28;1938;-66
2022/10/09 04:21:08;;;;;;;;;;;;;;;;;;5012177;28;1211;-66
2022/10/09 04:23:33;;;;;;;;;;;;;;;;;;5012721;28;892;-66
2022/10/09 04:25:59;;;;;;;;;;;;;;;;;;5011008;28;1200;-66
2022/10/09 04:28:24;;;;;;;;;;;;;;;;;;5012709;28;888;-66
2022/10/09 04:30:50;;;;;;;;;;;;;;;;;;5011379;28;1208;-65
2022/10/09 04:33:16;;;;;;;;;;;;;;;;;;5013120;28;908;-66
2022/10/09 04:35:43;;;;;;;;;;;;;;;;;;5010346;28;1244;-63
2022/10/09 04:38:08;;;;;;;;;;;;;;;;;;5027601;28;837;-64
2022/10/09 04:40:33;;;;;;;;;;;;;;;;;;5012088;28;1962;-64
2022/10/09 04:42:58;;;;;;;;;;;;;;;;;;5010612;28;1184;-63
2022/10/09 04:45:24;;;;;;;;;;;;;;;;;;5012010;28;853;-64
2022/10/09 04:47:49;;;;;;;;;;;;;;;;;;5043698;28;1271;-64
2022/10/09 04:50:15;;;;;;;;;;;;;;;;;;5027582;28;1196;-63
2022/10/09 04:52:40;;;;;;;;;;;;;;;;;;5012806;28;956;-64
2022/10/09 04:55:05;;;;;;;;;;;;;;;;;;5028306;28;833;-63
2022/10/09 04:57:31;;;;;;;;;;;;;;;;;;5011645;28;1292;-63
2022/10/09 04:59:56;;;;;;;;;;;;;;;;;;5013023;28;1902;-63
2022/10/09 05:02:21;;;;;;;;;;;;;;;;;;5011439;28;1369;-63
2022/10/09 05:04:47;;;;;;;;;;;;;;;;;;5011395;28;1366;-64
2022/10/09 05:07:12;;;;;;;;;;;;;;;;;;5012848;28;911;-63
2022/10/09 05:09:38;;;;;;;;;;;;;;;;;;5011315;28;1155;-64
2022/10/09 05:12:03;;;;;;;;;;;;;;;;;;5011936;28;841;-64
2022/10/09 05:14:29;;;;;;;;;;;;;;;;;;5010742;28;1248;-63
2022/10/09 05:16:56;;;;;;;;;;;;;;;;;;5012151;28;1086;-64
2022/10/09 05:19:21;;;;;;;;;;;;;;;;;;5029191;28;1975;-64
2022/10/09 05:21:46;;;;;;;;;;;;;;;;;;5031091;28;937;-63
2022/10/09 05:24:11;;;;;;;;;;;;;;;;;;5030506;28;1035;-64
2022/10/09 05:26:37;;;;;;;;;;;;;;;;;;5029961;28;689;-64
2022/10/09 05:29:02;;;;;;;;;;;;;;;;;;5031083;28;896;-64
2022/10/09 05:31:28;;;;;;;;;;;;;;;;;;5013421;28;1204;-64
2022/10/09 05:33:54;;;;;;;;;;;;;;;;;;5030853;28;825;-64
2022/10/09 05:36:19;;;;;;;;;;;;;;;;;;5031352;28;873;-64
2022/10/09 05:38:45;;;;;;;;;;;;;;;;;;5030714;28;1949;-64
2022/10/09 05:41:11;;;;;;;;;;;;;;;;;;5013657;28;1180;-64
2022/10/09 05:43:38;;;;;;;;;;;;;;;;;;5031014;28;1050;-64
2022/10/09 05:46:05;;;;;;;;;;;;;;;;;;5012693;28;1085;-64
2022/10/09 05:48:30;;;;;;;;;;;;;;;;;;5013225;28;1296;-64
2022/10/09 05:51:05;;;;;;;;;;;;;;;;;;5013020;28;1275;-64
2022/10/09 05:53:30;;;;;;;;;;;;;;;;;;5030792;28;971;-64
2022/10/09 05:55:56;;;;;;;;;;;;;;;;;;5030646;28;920;-64
2022/10/09 05:58:21;;;;;;;;;;;;;;;;;;5031111;28;1894;-64
2022/10/09 06:00:46;;;;;;;;;;;;;;;;;;5030372;28;1050;-64
2022/10/09 06:03:11;;;;;;;;;;;;;;;;;;5013416;28;1173;-64
2022/10/09 06:05:37;;;;;;;;;;;;;;;;;;5030905;28;912;-64
2022/10/09 06:08:02;;;;;;;;;;;;;;;;;;5012923;28;1178;-64
2022/10/09 06:10:27;;;;;;;;;;;;;;;;;;5012720;28;1245;-64
2022/10/09 06:12:53;;;;;;;;;;;;;;;;;;5028304;28;1144;-64
2022/10/09 06:15:18;;;;;;;;;;;;;;;;;;5011086;28;1497;-64
2022/10/09 06:17:43;;;;;;;;;;;;;;;;;;5030578;28;1047;-64
2022/10/09 06:20:09;;;;;;;;;;;;;;;;;;5031616;28;1910;-64
2022/10/09 06:22:34;;;;;;;;;;;;;;;;;;5013122;28;1302;-64
2022/10/09 06:24:59;;;;;;;;;;;;;;;;;;5013349;28;1067;-64
2022/10/09 06:27:24;;;;;;;;;;;;;;;;;;5029926;28;892;-64
2022/10/09 06:29:50;;;;;;;;;;;;;;;;;;5013185;28;1152;-64
2022/10/09 06:32:15;;;;;;;;;;;;;;;;;;5013432;28;1168;-65
2022/10/09 06:34:40;;;;;;;;;;;;;;;;;;5030654;28;838;-64
2022/10/09 06:37:08;;;;;;;;;;;;;;;;;;5012335;28;1146;-65
2022/10/09 06:39:33;;;;;;;;;;;;;;;;;;5012195;28;1966;-64
2022/10/09 06:41:58;;;;;;;;;;;;;;;;;;5012445;28;1318;-65
2022/10/09 06:44:24;;;;;;;;;;;;;;;;;;5012493;28;1069;-65
2022/10/09 06:46:49;;;;;;;;;;;;;;;;;;5029686;28;817;-65
2022/10/09 06:49:14;;;;;;;;;;;;;;;;;;5029084;28;912;-65
2022/10/09 06:51:39;;;;;;;;;;;;;;;;;;5028744;28;1303;-64
2022/10/09 06:54:09;;;;;;;;;;;;;;;;;;5012107;28;1276;-64
2022/10/09 06:56:34;;;;;;;;;;;;;;;;;;5030387;28;991;-64
2022/10/09 06:59:00;;;;;;;;;;;;;;;;;;5031873;28;1914;-65
2022/10/09 07:01:29;;;;;;;;;;;;;;;;;;5034108;28;983;-64
2022/10/09 07:03:58;;;;;;;;;;;;;;;;;;5015733;28;1241;-65
2022/10/09 07:06:25;;;;;;;;;;;;;;;;;;5034030;28;912;-64
2022/10/09 07:08:54;;;;;;;;;;;;;;;;;;5033300;28;956;-65
2022/10/09 07:11:20;;;;;;;;;;;;;;;;;;5034122;28;853;-64
2022/10/09 07:13:47;;;;;;;;;;;;;;;;;;5033158;28;853;-65
2022/10/09 07:16:12;;;;;;;;;;;;;;;;;;5034130;28;1012;-65
2022/10/09 07:18:38;;;;;;;;;;;;;;;;;;5015659;28;1894;-64
2022/10/09 07:21:05;;;;;;;;;;;;;;;;;;5016014;28;1106;-64
2022/10/09 07:23:31;;;;;;;;;;;;;;;;;;5033871;28;1037;-65
2022/10/09 07:25:57;;;;;;;;;;;;;;;;;;5033466;28;916;-65
2022/10/09 07:28:22;;;;;;;;;;;;;;;;;;5033992;28;849;-66
2022/10/09 07:30:48;;;;;;;;;;;;;;;;;;5032967;28;829;-66
2022/10/09 07:33:13;;;;;;;;;;;;;;;;;;5032460;28;915;-66
2022/10/09 07:35:38;;;;;;;;;;;;;;;;;;5033879;28;817;-66
2022/10/09 07:38:04;;;;;;;;;;;;;;;;;;5015915;28;1181;-66
2022/10/09 07:40:32;;;;;;;;;;;;;;;;;;5032916;28;1961;-65
2022/10/09 07:42:57;;;;;;;;;;;;;;;;;;5033631;28;876;-65
2022/10/09 07:45:22;;;;;;;;;;;;;;;;;;5032922;28;915;-66
2022/10/09 07:47:48;;;;;;;;;;;;;;;;;;5015930;28;1295;-66
2022/10/09 07:50:13;;;;;;;;;;;;;;;;;;5033337;28;829;-66
2022/10/09 07:52:38;;;;;;;;;;;;;;;;;;5033644;28;904;-68
2022/10/09 07:55:04;;;;;;;;;;;;;;;;;;5015133;28;1334;-68
2022/10/09 07:57:29;;;;;;;;;;;;;;;;;;5033321;28;959;-68
2022/10/09 07:59:54;;;;;;;;;;;;;;;;;;5032649;28;1921;-68
2022/10/09 08:02:19;;;;;;;;;;;;;;;;;;5015462;28;1536;-68
2022/10/09 08:04:45;;;;;;;;;;;;;;;;;;5032497;28;900;-68
2022/10/09 08:07:10;;;;;;;;;;;;;;;;;;5032887;28;1007;-68
2022/10/09 08:09:36;;;;;;;;;;;;;;;;;;5032701;28;912;-68
2022/10/09 08:12:01;;;;;;;;;;;;;;;;;;5014702;28;1086;-68
2022/10/09 08:14:26;;;;;;;;;;;;;;;;;;5014832;28;939;-68
2022/10/09 08:16:52;;;;;;;;;;;;;;;;;;5014760;28;1391;-68
2022/10/09 08:19:17;;;;;;;;;;;;;;;;;;5014803;28;1906;-67
2022/10/09 08:21:42;;;;;;;;;;;;;;;;;;5033139;28;857;-67
2022/10/09 08:24:09;;;;;;;;;;;;;;;;;;5014296;28;1326;-67
2022/10/09 08:26:34;;;;;;;;;;;;;;;;;;5032551;28;1007;-67
2022/10/09 08:29:00;;;;;;;;;;;;;;;;;;5031741;28;833;-67
2022/10/09 08:31:26;;;;;;;;;;;;;;;;;;5032586;28;865;-67
2022/10/09 08:33:52;;;;;;;;;;;;;;;;;;5031637;28;857;-68
2022/10/09 08:36:18;;;;;;;;;;;;;;;;;;5032467;28;956;-68
2022/10/09 08:38:43;;;;;;;;;;;;;;;;;;5031663;28;1957;-67
2022/10/09 08:41:20;;;;;;;;;;;;;;;;;;5006057;28;1895;-67
2022/10/09 08:43:47;;;;;;;;;;;;;;;;;;5002749;28;1687;-67
2022/10/09 08:46:22;;;;;;;;;;;;;;;;;;5011912;28;870;-67
2022/10/09 08:48:48;;;;;;;;;;;;;;;;;;5010839;28;821;-67
2022/10/09 08:51:19;;;;;;;;;;;;;;;;;;4994637;28;695;-67
2022/10/09 08:53:53;;;;;;;;;;;;;;;;;;5012565;28;913;-67
2022/10/09 08:56:18;;;;;;;;;;;;;;;;;;5012526;28;806;-67
2022/10/09 08:58:44;;;;;;;;;;;;;;;;;;4994796;28;1941;-67
2022/10/09 09:01:33;;;;;;;;;;;;;;;;;;5011557;28;1024;-67
2022/10/09 09:03:58;;;;;;;;;;;;;;;;;;4995100;28;1244;-67
2022/10/09 09:06:26;;;;;;;;;;;;;;;;;;4995817;28;1331;-67
2022/10/09 09:09:08;;;;;;;;;;;;;;;;;;4995329;28;1506;-67
2022/10/09 09:11:34;;;;;;;;;;;;;;;;;;4995640;28;1287;-67
2022/10/09 09:14:02;;;;;;;;;;;;;;;;;;4994759;28;881;-67
2022/10/09 09:16:43;;;;;;;;;;;;;;;;;;5013520;28;967;-67
2022/10/09 09:19:18;;;;;;;;;;;;;;;;;;4994386;28;1911;-67
2022/10/09 09:21:48;;;;;;;;;;;;;;;;;;5011910;28;825;-67
2022/10/09 09:24:22;;;;;;;;;;;;;;;;;;5012068;28;856;-67
2022/10/09 09:26:50;;;;;;;;;;;;;;;;;;4993949;28;964;-67
2022/10/09 09:29:19;;;;;;;;;;;;;;;;;;4994651;28;1332;-67
2022/10/09 09:31:45;;;;;;;;;;;;;;;;;;4994498;28;1330;-66
2022/10/09 09:34:25;;;;;;;;;;;;;;;;;;4994534;28;1231;-66
2022/10/09 09:36:53;;;;;;;;;;;;;;;;;;5011538;28;912;-66
2022/10/09 09:39:20;;;;;;;;;;;;;;;;;;5012145;28;1952;-66
2022/10/09 09:41:45;;;;;;;;;;;;;;;;;;4994653;28;1244;-65
2022/10/09 09:44:12;;;;;;;;;;;;;;;;;;4994326;28;980;-66
2022/10/09 09:46:41;;;;;;;;;;;;;;;;;;4994543;28;1201;-65
2022/10/09 09:49:20;;;;;;;;;;;;;;;;;;5010013;28;855;-66
2022/10/09 09:51:47;;;;;;;;;;;;;;;;;;5011580;28;1066;-66
2022/10/09 09:54:17;;;;;;;;;;;;;;;;;;5012144;28;837;-66
2022/10/09 09:56:43;;;;;;;;;;;;;;;;;;5012584;28;806;-65
2022/10/09 09:59:25;;;;;;;;;;;;;;;;;;5011216;28;1915;-66
2022/10/09 10:02:11;;;;;;;;;;;;;;;;;;4993071;28;1534;-66
2022/10/09 10:04:36;;;;;;;;;;;;;;;;;;4994268;28;1193;-65
2022/10/09 10:07:02;;;;;;;;;;;;;;;;;;5011567;28;904;-66
2022/10/09 10:09:27;;;;;;;;;;;;;;;;;;5011766;28;919;-65
2022/10/09 10:12:00;;;;;;;;;;;;;;;;;;4993179;28;1188;-66
2022/10/09 10:14:26;;;;;;;;;;;;;;;;;;5011199;28;995;-65
2022/10/09 10:16:53;;;;;;;;;;;;;;;;;;5010463;28;980;-66
2022/10/09 10:19:18;;;;;;;;;;;;;;;;;;4989976;28;1899;-65
2022/10/09 10:21:47;;;;;;;;;;;;;;;;;;4991493;28;960;-65
2022/10/09 10:24:19;;;;;;;;;;;;;;;;;;4991709;28;889;-66
2022/10/09 10:26:50;;;;;;;;;;;;;;;;;;4992114;28;782;-66
2022/10/09 10:29:26;;;;;;;;;;;;;;;;;;4991273;28;1149;-66
2022/10/09 10:31:51;;;;;;;;;;;;;;;;;;4992674;28;885;-65
2022/10/09 10:34:23;;;;;;;;;;;;;;;;;;4992386;28;1315;-65
2022/10/09 10:36:52;;;;;;;;;;;;;;;;;;4993886;28;858;-65
2022/10/09 10:39:23;;;;;;;;;;;;;;;;;;5009123;28;1906;-66
2022/10/09 10:41:50;;;;;;;;;;;;;;;;;;5001621;28;1806;-66
2022/10/09 10:44:28;;;;;;;;;;;;;;;;;;5000749;28;1910;-65
2022/10/09 10:46:58;;;;;;;;;;;;;;;;;;5008801;28;1910;-65
2022/10/09 10:49:24;;;;;;;;;;;;;;;;;;5012485;28;837;-66
2022/10/09 10:52:01;;;;;;;;;;;;;;;;;;5012348;28;856;-66
2022/10/09 10:54:36;;;;;;;;;;;;;;;;;;5013151;28;2044;-66
2022/10/09 10:57:10;;;;;;;;;;;;;;;;;;5006902;28;1954;-66
2022/10/09 10:59:54;;;;;;;;;;;;;;;;;;5011129;28;1878;-65
2022/10/09 11:02:38;;;;;;;;;;;;;;;;;;5011265;28;1807;-65
2022/10/09 11:05:22;;;;;;;;;;;;;;;;;;5012295;28;873;-65
2022/10/09 11:07:54;;;;;;;;;;;;;;;;;;4999979;28;1889;-66
2022/10/09 11:10:25;;;;;;;;;;;;;;;;;;5009955;28;1828;-66
2022/10/09 11:12:50;;;;;;;;;;;;;;;;;;4998671;28;1901;-66
2022/10/09 11:15:33;;;;;;;;;;;;;;;;;;4996002;28;2035;-66
2022/10/09 11:17:58;;;;;;;;;;;;;;;;;;5012527;28;1826;-66
2022/10/09 11:20:23;;;;;;;;;;;;;;;;;;5010805;28;1965;-66
2022/10/09 11:23:00;;;;;;;;;;;;;;;;;;4992673;28;1293;-65
2022/10/09 11:25:29;;;;;;;;;;;;;;;;;;4992602;28;1189;-66
2022/10/09 11:28:00;;;;;;;;;;;;;;;;;;5010318;28;920;-66
2022/10/09 11:30:28;;;;;;;;;;;;;;;;;;5010571;28;813;-66
2022/10/09 11:33:13;;;;;;;;;;;;;;;;;;5010158;28;1019;-66
2022/10/09 11:35:51;;;;;;;;;;;;;;;;;;5010634;28;880;-66
2022/10/09 11:38:28;;;;;;;;;;;;;;;;;;5010225;28;995;-66
2022/10/09 11:40:54;;;;;;;;;;;;;;;;;;5010102;28;1894;-66
2022/10/09 11:43:20;;;;;;;;;;;;;;;;;;5025772;28;1751;-66
2022/10/09 11:45:54;;;;;;;;;;;;;;;;;;5026915;28;1389;-66
2022/10/09 11:48:19;;;;;;;;;;;;;;;;;;5016644;28;1299;-66
2022/10/09 11:50:52;;;;;;;;;;;;;;;;;;5009647;28;1981;-66
2022/10/09 11:53:19;;;;;;;;;;;;;;;;;;5022617;28;1671;-67
2022/10/09 11:55:47;;;;;;;;;;;;;;;;;;5013450;28;1808;-67
2022/10/09 11:58:16;;;;;;;;;;;;;;;;;;5028185;28;1232;-67
2022/10/09 12:00:42;;;;;;;;;;;;;;;;;;4996218;28;1936;-67
2022/10/09 12:03:21;;;;;;;;;;;;;;;;;;5029740;28;1283;-67
2022/10/09 12:05:48;;;;;;;;;;;;;;;;;;5013902;28;893;-67
2022/10/09 12:08:23;;;;;;;;;;;;;;;;;;5013213;28;1102;-67
2022/10/09 12:10:52;;;;;;;;;;;;;;;;;;5016965;28;1693;-67
2022/10/09 12:13:37;;;;;;;;;;;;;;;;;;5031926;28;1807;-67
2022/10/09 12:16:03;;;;;;;;;;;;;;;;;;5026718;28;1934;-67
2022/10/09 12:18:30;;;;;;;;;;;;;;;;;;5022574;28;1977;-67
2022/10/09 12:20:56;;;;;;;;;;;;;;;;;;5017430;28;1910;-67
2022/10/09 12:23:24;;;;;;;;;;;;;;;;;;5000761;28;1942;-67
2022/10/09 12:25:50;;;;;;;;;;;;;;;;;;5027945;28;1973;-67
2022/10/09 12:28:28;;;;;;;;;;;;;;;;;;5004991;28;1808;-67
2022/10/09 12:30:54;;;;;;;;;;;;;;;;;;5004645;28;1787;-67
2022/10/09 12:33:37;;;;;;;;;;;;;;;;;;5017469;28;1914;-67
2022/10/09 12:36:09;;;;;;;;;;;;;;;;;;5005293;28;1863;-67
2022/10/09 12:38:34;;;;;;;;;;;;;;;;;;5019712;28;1975;-67
2022/10/09 12:41:01;;;;;;;;;;;;;;;;;;5020782;28;1838;-67
2022/10/09 12:43:27;;;;;;;;;;;;;;;;;;5022445;28;1695;-67
2022/10/09 12:45:53;;;;;;;;;;;;;;;;;;5017607;28;1965;-67
2022/10/09 12:48:20;;;;;;;;;;;;;;;;;;5008486;28;1938;-67
2022/10/09 12:50:46;;;;;;;;;;;;;;;;;;5023188;28;1977;-67
2022/10/09 12:53:13;;;;;;;;;;;;;;;;;;5014403;28;2016;-67
2022/10/09 12:55:43;;;;;;;;;;;;;;;;;;5016428;28;1866;-67
2022/10/09 12:58:11;;;;;;;;;;;;;;;;;;5022085;28;1945;-67
2022/10/09 13:00:36;;;;;;;;;;;;;;;;;;5017792;28;1976;-67
2022/10/09 13:03:01;;;;;;;;;;;;;;;;;;5019958;28;1869;-67
2022/10/09 13:05:39;;;;;;;;;;;;;;;;;;5030935;28;881;-67
2022/10/09 13:08:14;;;;;;;;;;;;;;;;;;5030665;28;1451;-67
2022/10/09 13:10:39;;;;;;;;;;;;;;;;;;5032572;28;1058;-67
2022/10/09 13:13:04;;;;;;;;;;;;;;;;;;5031719;28;1027;-67
2022/10/09 13:15:30;;;;;;;;;;;;;;;;;;5047918;28;1315;-67
2022/10/09 13:17:55;;;;;;;;;;;;;;;;;;5046931;28;1224;-67
2022/10/09 13:20:22;;;;;;;;;;;;;;;;;;5030495;28;1965;-67
2022/10/09 13:22:55;;;;;;;;;;;;;;;;;;5032100;28;841;-67
2022/10/09 13:25:20;;;;;;;;;;;;;;;;;;5032458;28;809;-67
2022/10/09 13:27:45;;;;;;;;;;;;;;;;;;5047235;28;1176;-67
2022/10/09 13:30:11;;;;;;;;;;;;;;;;;;5046788;28;999;-67
2022/10/09 13:32:36;;;;;;;;;;;;;;;;;;5047202;28;821;-67
2022/10/09 13:35:01;;;;;;;;;;;;;;;;;;5031832;28;1050;-67
2022/10/09 13:37:27;;;;;;;;;;;;;;;;;;5032311;28;908;-67
2022/10/09 13:39:53;;;;;;;;;;;;;;;;;;5047365;28;1871;-67
2022/10/09 13:42:19;;;;;;;;;;;;;;;;;;5031052;28;1277;-67
2022/10/09 13:44:45;;;;;;;;;;;;;;;;;;5014920;28;1220;-67
2022/10/09 13:47:10;;;;;;;;;;;;;;;;;;5047696;28;887;-67
2022/10/09 13:49:35;;;;;;;;;;;;;;;;;;5047865;28;1220;-67
2022/10/09 13:52:00;;;;;;;;;;;;;;;;;;5031825;28;830;-67
2022/10/09 13:54:26;;;;;;;;;;;;;;;;;;5047175;28;1430;-67
2022/10/09 13:56:51;;;;;;;;;;;;;;;;;;5046723;28;1092;-68
2022/10/09 13:59:16;;;;;;;;;;;;;;;;;;5046683;28;1890;-67
2022/10/09 14:01:42;;;;;;;;;;;;;;;;;;5047666;28;1394;-67
2022/10/09 14:04:07;;;;;;;;;;;;;;;;;;5046532;28;1413;-67
2022/10/09 14:06:34;;;;;;;;;;;;;;;;;;5047004;28;929;-67
2022/10/09 14:09:00;;;;;;;;;;;;;;;;;;5030993;28;825;-67
2022/10/09 14:11:25;;;;;;;;;;;;;;;;;;5046201;28;1276;-67
2022/10/09 14:13:50;;;;;;;;;;;;;;;;;;5031318;28;1035;-67
2022/10/09 14:16:15;;;;;;;;;;;;;;;;;;5030903;28;981;-67
2022/10/09 14:18:41;;;;;;;;;;;;;;;;;;5031093;28;1985;-68
2022/10/09 14:21:07;;;;;;;;;;;;;;;;;;5030674;28;1192;-67
2022/10/09 14:23:32;;;;;;;;;;;;;;;;;;5031131;28;892;-67
2022/10/09 14:26:00;;;;;;;;;;;;;;;;;;5012900;28;1172;-67
2022/10/09 14:28:26;;;;;;;;;;;;;;;;;;5013022;28;1245;-67
2022/10/09 14:30:54;;;;;;;;;;;;;;;;;;5030970;28;1043;-67
2022/10/09 14:33:19;;;;;;;;;;;;;;;;;;5029877;28;976;-67
2022/10/09 14:35:44;;;;;;;;;;;;;;;;;;5029727;28;892;-67
2022/10/09 14:38:10;;;;;;;;;;;;;;;;;;5030668;28;1002;-67
2022/10/09 14:40:40;;;;;;;;;;;;;;;;;;5030779;28;1898;-68
2022/10/09 14:43:05;;;;;;;;;;;;;;;;;;5030671;28;927;-68
2022/10/09 14:45:31;;;;;;;;;;;;;;;;;;5030836;28;920;-67
2022/10/09 14:47:57;;;;;;;;;;;;;;;;;;5012577;28;1204;-67
2022/10/09 14:50:22;;;;;;;;;;;;;;;;;;5030177;28;1259;-68
2022/10/09 14:52:47;;;;;;;;;;;;;;;;;;5030901;28;908;-66
2022/10/09 14:55:13;;;;;;;;;;;;;;;;;;5030488;28;892;-68
2022/10/09 14:57:38;;;;;;;;;;;;;;;;;;5013349;28;1243;-68
2022/10/09 15:00:04;;;;;;;;;;;;;;;;;;5030875;28;1902;-70
2022/10/09 15:02:29;;;;;;;;;;;;;;;;;;5013988;28;1173;-67
2022/10/09 15:04:55;;;;;;;;;;;;;;;;;;5014002;28;1338;-67
2022/10/09 15:07:20;;;;;;;;;;;;;;;;;;5014165;28;1221;-68
2022/10/09 15:09:45;;;;;;;;;;;;;;;;;;5031762;28;778;-66
2022/10/09 15:12:13;;;;;;;;;;;;;;;;;;5030403;28;892;-67
2022/10/09 15:14:38;;;;;;;;;;;;;;;;;;5032112;28;785;-69
2022/10/09 15:17:04;;;;;;;;;;;;;;;;;;5030322;28;1039;-68
2022/10/09 15:19:29;;;;;;;;;;;;;;;;;;5029964;28;1922;-67
2022/10/09 15:21:55;;;;;;;;;;;;;;;;;;5034449;28;937;-68
2022/10/09 15:24:20;;;;;;;;;;;;;;;;;;5017198;28;1239;-68
2022/10/09 15:26:45;;;;;;;;;;;;;;;;;;5035133;28;896;-66
2022/10/09 15:29:11;;;;;;;;;;;;;;;;;;5017081;28;1255;-67
2022/10/09 15:31:37;;;;;;;;;;;;;;;;;;5034591;28;897;-70
2022/10/09 15:34:03;;;;;;;;;;;;;;;;;;5035055;28;859;-69
2022/10/09 15:36:29;;;;;;;;;;;;;;;;;;5016832;28;1300;-68
2022/10/09 15:38:55;;;;;;;;;;;;;;;;;;5016332;28;1973;-67
2022/10/09 15:41:25;;;;;;;;;;;;;;;;;;5016903;28;1348;-66
2022/10/09 15:43:53;;;;;;;;;;;;;;;;;;5016270;28;1300;-65
2022/10/09 15:46:18;;;;;;;;;;;;;;;;;;5034515;28;845;-66
2022/10/09 15:48:44;;;;;;;;;;;;;;;;;;5033870;28;853;-68
2022/10/09 15:51:12;;;;;;;;;;;;;;;;;;5017034;28;1417;-67
2022/10/09 15:53:45;;;;;;;;;;;;;;;;;;5017104;28;1222;-66
2022/10/09 15:56:12;;;;;;;;;;;;;;;;;;5032520;28;951;-66
2022/10/09 15:58:37;;;;;;;;;;;;;;;;;;5015557;28;1363;-67
2022/10/09 16:01:04;;;;;;;;;;;;;;;;;;5015865;28;1898;-67
2022/10/09 16:03:31;;;;;;;;;;;;;;;;;;5015935;28;1165;-66
2022/10/09 16:05:57;;;;;;;;;;;;;;;;;;5033467;28;904;-67
2022/10/09 16:08:22;;;;;;;;;;;;;;;;;;5015972;28;1338;-67
2022/10/09 16:10:48;;;;;;;;;;;;;;;;;;5033728;28;912;-67
2022/10/09 16:13:13;;;;;;;;;;;;;;;;;;5033316;28;905;-67
2022/10/09 16:15:42;;;;;;;;;;;;;;;;;;5016886;28;1280;-66
2022/10/09 16:18:08;;;;;;;;;;;;;;;;;;5033746;28;1094;-67
2022/10/09 16:20:34;;;;;;;;;;;;;;;;;;5015599;28;1906;-67
2022/10/09 16:23:00;;;;;;;;;;;;;;;;;;5033566;28;915;-67
2022/10/09 16:25:25;;;;;;;;;;;;;;;;;;5015590;28;1363;-67
2022/10/09 16:27:50;;;;;;;;;;;;;;;;;;5033797;28;975;-66
2022/10/09 16:30:16;;;;;;;;;;;;;;;;;;5031534;28;881;-67
2022/10/09 16:32:41;;;;;;;;;;;;;;;;;;5014962;28;1201;-67
2022/10/09 16:35:07;;;;;;;;;;;;;;;;;;5031661;28;830;-67
2022/10/09 16:37:32;;;;;;;;;;;;;;;;;;5016335;28;1209;-67
2022/10/09 16:39:58;;;;;;;;;;;;;;;;;;5033456;28;1930;-67
2022/10/09 16:42:23;;;;;;;;;;;;;;;;;;5031289;28;1208;-67
2022/10/09 16:44:50;;;;;;;;;;;;;;;;;;5031139;28;1154;-67
2022/10/09 16:47:16;;;;;;;;;;;;;;;;;;5030904;28;1189;-66
2022/10/09 16:49:41;;;;;;;;;;;;;;;;;;5014532;28;1654;-67
2022/10/09 16:52:07;;;;;;;;;;;;;;;;;;5014852;28;672;-66
2022/10/09 16:54:35;;;;;;;;;;;;;;;;;;5015890;28;1269;-67
2022/10/09 16:57:03;;;;;;;;;;;;;;;;;;5033220;28;833;-66
2022/10/09 16:59:28;;;;;;;;;;;;;;;;;;5015461;28;1898;-67
2022/10/09 17:01:55;;;;;;;;;;;;;;;;;;5014981;28;1313;-67
2022/10/09 17:04:21;;;;;;;;;;;;;;;;;;5014991;28;1319;-67
2022/10/09 17:06:51;;;;;;;;;;;;;;;;;;5014888;28;1258;-66
2022/10/09 17:09:16;;;;;;;;;;;;;;;;;;5014445;28;1098;-65
2022/10/09 17:11:41;;;;;;;;;;;;;;;;;;5032573;28;841;-66